sensor_id;sensor_type;location;lat;lon;timestamp;pressure;altitude;pressure_sealevel;temperature;humidity
63554;BME280;49699;48.072;7.800;2022-08-01T00:00:42;99539.19;;;21.53;53.33
63554;BME280;49699;48.072;7.800;2022-08-01T00:03:07;99549.13;;;21.51;53.53
63554;BME280;49699;48.072;7.800;2022-08-01T00:05:33;99540.69;;;21.47;53.63
63554;BME280;49699;48.072;7.800;2022-08-01T00:07:58;99547.09;;;21.44;53.81
63554;BME280;49699;48.072;7.800;2022-08-01T00:10:24;99538.63;;;21.41;53.86
63554;BME280;49699;48.072;7.800;2022-08-01T00:12:50;99545.22;;;21.37;54.08
63554;BME280;49699;48.072;7.800;2022-08-01T00:15:17;99548.31;;;21.32;54.31
63554;BME280;49699;48.072;7.800;2022-08-01T00:17:43;99543.13;;;21.23;54.46
63554;BME280;49699;48.072;7.800;2022-08-01T00:20:10;99549.00;;;21.17;54.62
63554;BME280;49699;48.072;7.800;2022-08-01T00:22:36;99545.63;;;21.06;55.27
63554;BME280;49699;48.072;7.800;2022-08-01T00:25:03;99548.50;;;20.95;55.75
63554;BME280;49699;48.072;7.800;2022-08-01T00:27:28;99553.31;;;20.82;56.13
63554;BME280;49699;48.072;7.800;2022-08-01T00:29:54;99545.31;;;20.74;56.43
63554;BME280;49699;48.072;7.800;2022-08-01T00:32:19;99556.78;;;20.65;56.79
63554;BME280;49699;48.072;7.800;2022-08-01T00:34:45;99554.34;;;20.54;57.03
63554;BME280;49699;48.072;7.800;2022-08-01T00:37:10;99548.75;;;20.39;57.76
63554;BME280;49699;48.072;7.800;2022-08-01T00:39:35;99553.50;;;20.26;58.01
63554;BME280;49699;48.072;7.800;2022-08-01T00:42:11;99558.84;;;20.16;58.52
63554;BME280;49699;48.072;7.800;2022-08-01T00:44:37;99561.69;;;20.05;58.78
63554;BME280;49699;48.072;7.800;2022-08-01T00:47:04;99563.50;;;19.95;59.44
63554;BME280;49699;48.072;7.800;2022-08-01T00:49:30;99556.47;;;19.86;59.46
63554;BME280;49699;48.072;7.800;2022-08-01T00:51:56;99555.22;;;19.80;59.74
63554;BME280;49699;48.072;7.800;2022-08-01T00:54:23;99552.31;;;19.73;60.13
63554;BME280;49699;48.072;7.800;2022-08-01T00:56:49;99552.63;;;19.70;60.19
63554;BME280;49699;48.072;7.800;2022-08-01T00:59:17;99553.59;;;19.69;59.95
63554;BME280;49699;48.072;7.800;2022-08-01T01:01:42;99549.16;;;19.70;60.06
63554;BME280;49699;48.072;7.800;2022-08-01T01:04:08;99555.94;;;19.72;59.98
63554;BME280;49699;48.072;7.800;2022-08-01T01:09:33;99553.84;;;19.76;60.02
63554;BME280;49699;48.072;7.800;2022-08-01T01:12:12;99556.34;;;19.77;60.02
63554;BME280;49699;48.072;7.800;2022-08-01T01:15:07;99560.66;;;19.79;59.92
63554;BME280;49699;48.072;7.800;2022-08-01T01:17:39;99556.78;;;19.73;60.10
63554;BME280;49699;48.072;7.800;2022-08-01T01:20:08;99564.69;;;19.73;60.24
63554;BME280;49699;48.072;7.800;2022-08-01T01:23:10;99565.28;;;19.67;60.51
63554;BME280;49699;48.072;7.800;2022-08-01T01:28:09;99557.97;;;19.51;61.04
63554;BME280;49699;48.072;7.800;2022-08-01T01:30:38;99554.31;;;19.42;61.13
63554;BME280;49699;48.072;7.800;2022-08-01T01:33:08;99563.34;;;19.40;61.28
63554;BME280;49699;48.072;7.800;2022-08-01T01:35:37;99557.66;;;19.35;61.40
63554;BME280;49699;48.072;7.800;2022-08-01T01:38:33;99561.97;;;19.26;61.78
63554;BME280;49699;48.072;7.800;2022-08-01T01:40:59;99559.63;;;19.14;62.13
63554;BME280;49699;48.072;7.800;2022-08-01T01:43:27;99552.81;;;19.01;62.50
63554;BME280;49699;48.072;7.800;2022-08-01T01:45:54;99564.91;;;18.94;62.59
63554;BME280;49699;48.072;7.800;2022-08-01T01:48:22;99567.13;;;18.89;62.90
63554;BME280;49699;48.072;7.800;2022-08-01T01:50:49;99565.03;;;18.83;63.08
63554;BME280;49699;48.072;7.800;2022-08-01T01:53:19;99562.81;;;18.79;63.25
63554;BME280;49699;48.072;7.800;2022-08-01T01:55:47;99566.97;;;18.81;63.25
63554;BME280;49699;48.072;7.800;2022-08-01T01:58:14;99565.03;;;18.83;63.29
63554;BME280;49699;48.072;7.800;2022-08-01T02:00:42;99565.72;;;18.85;63.16
63554;BME280;49699;48.072;7.800;2022-08-01T02:03:11;99568.09;;;18.88;62.92
63554;BME280;49699;48.072;7.800;2022-08-01T02:05:38;99562.69;;;18.90;63.10
63554;BME280;49699;48.072;7.800;2022-08-01T02:08:05;99565.19;;;18.91;62.97
63554;BME280;49699;48.072;7.800;2022-08-01T02:10:34;99557.00;;;18.94;62.80
63554;BME280;49699;48.072;7.800;2022-08-01T02:13:02;99556.88;;;18.96;62.81
63554;BME280;49699;48.072;7.800;2022-08-01T02:15:29;99560.03;;;18.99;62.68
63554;BME280;49699;48.072;7.800;2022-08-01T02:17:57;99555.31;;;19.03;62.28
63554;BME280;49699;48.072;7.800;2022-08-01T02:20:24;99549.91;;;19.04;62.23
63554;BME280;49699;48.072;7.800;2022-08-01T02:22:53;99552.81;;;19.01;62.29
63554;BME280;49699;48.072;7.800;2022-08-01T02:25:27;99552.41;;;18.96;62.29
63554;BME280;49699;48.072;7.800;2022-08-01T02:28:03;99554.50;;;18.93;62.42
63554;BME280;49699;48.072;7.800;2022-08-01T02:30:33;99559.50;;;18.96;62.37
63554;BME280;49699;48.072;7.800;2022-08-01T02:33:07;99551.59;;;18.96;62.38
63554;BME280;49699;48.072;7.800;2022-08-01T02:35:37;99555.06;;;18.96;62.28
63554;BME280;49699;48.072;7.800;2022-08-01T02:38:05;99556.72;;;18.97;62.37
63554;BME280;49699;48.072;7.800;2022-08-01T02:40:32;99549.91;;;18.95;62.41
63554;BME280;49699;48.072;7.800;2022-08-01T02:43:01;99555.34;;;18.93;62.33
63554;BME280;49699;48.072;7.800;2022-08-01T02:45:28;99560.59;;;18.84;62.85
63554;BME280;49699;48.072;7.800;2022-08-01T02:47:59;99563.50;;;18.71;63.19
63554;BME280;49699;48.072;7.800;2022-08-01T02:50:28;99559.88;;;18.62;63.49
63554;BME280;49699;48.072;7.800;2022-08-01T02:52:55;99556.41;;;18.62;63.54
63554;BME280;49699;48.072;7.800;2022-08-01T02:55:22;99563.63;;;18.60;63.69
63554;BME280;49699;48.072;7.800;2022-08-01T02:57:49;99558.59;;;18.57;63.75
63554;BME280;49699;48.072;7.800;2022-08-01T03:00:16;99558.41;;;18.49;64.10
63554;BME280;49699;48.072;7.800;2022-08-01T03:02:43;99558.97;;;18.43;64.42
63554;BME280;49699;48.072;7.800;2022-08-01T03:05:11;99563.81;;;18.37;64.33
63554;BME280;49699;48.072;7.800;2022-08-01T03:07:38;99555.06;;;18.37;64.30
63554;BME280;49699;48.072;7.800;2022-08-01T03:10:05;99560.75;;;18.32;64.45
63554;BME280;49699;48.072;7.800;2022-08-01T03:12:33;99557.97;;;18.24;64.69
63554;BME280;49699;48.072;7.800;2022-08-01T03:14:59;99557.91;;;18.15;64.95
63554;BME280;49699;48.072;7.800;2022-08-01T03:17:27;99558.47;;;18.09;65.06
63554;BME280;49699;48.072;7.800;2022-08-01T03:19:56;99560.38;;;18.07;65.40
63554;BME280;49699;48.072;7.800;2022-08-01T03:22:24;99556.09;;;18.06;65.37
63554;BME280;49699;48.072;7.800;2022-08-01T03:24:52;99554.69;;;18.11;65.35
63554;BME280;49699;48.072;7.800;2022-08-01T03:27:19;99552.91;;;18.12;65.11
63554;BME280;49699;48.072;7.800;2022-08-01T03:29:47;99548.34;;;18.14;65.02
63554;BME280;49699;48.072;7.800;2022-08-01T03:32:13;99560.16;;;18.19;65.00
63554;BME280;49699;48.072;7.800;2022-08-01T03:34:40;99554.75;;;18.21;64.91
63554;BME280;49699;48.072;7.800;2022-08-01T03:37:10;99547.13;;;18.27;64.63
63554;BME280;49699;48.072;7.800;2022-08-01T03:39:49;99551.16;;;18.31;64.33
63554;BME280;49699;48.072;7.800;2022-08-01T03:42:20;99556.03;;;18.36;64.32
63554;BME280;49699;48.072;7.800;2022-08-01T03:44:54;99559.25;;;18.39;64.08
63554;BME280;49699;48.072;7.800;2022-08-01T03:47:21;99552.88;;;18.42;63.99
63554;BME280;49699;48.072;7.800;2022-08-01T03:49:49;99542.88;;;18.46;63.91
63554;BME280;49699;48.072;7.800;2022-08-01T03:52:16;99550.78;;;18.46;63.81
63554;BME280;49699;48.072;7.800;2022-08-01T03:54:47;99544.00;;;18.43;63.79
63554;BME280;49699;48.072;7.800;2022-08-01T03:57:14;99549.94;;;18.45;63.93
63554;BME280;49699;48.072;7.800;2022-08-01T03:59:41;99537.91;;;18.43;63.95
63554;BME280;49699;48.072;7.800;2022-08-01T04:02:09;99542.34;;;18.42;63.91
63554;BME280;49699;48.072;7.800;2022-08-01T04:04:35;99536.38;;;18.40;64.27
63554;BME280;49699;48.072;7.800;2022-08-01T04:07:01;99535.66;;;18.38;64.17
63554;BME280;49699;48.072;7.800;2022-08-01T04:09:32;99536.91;;;18.34;64.33
63554;BME280;49699;48.072;7.800;2022-08-01T04:12:00;99540.06;;;18.28;64.50
63554;BME280;49699;48.072;7.800;2022-08-01T04:14:27;99535.91;;;18.25;64.82
63554;BME280;49699;48.072;7.800;2022-08-01T04:16:53;99542.53;;;18.20;64.85
63554;BME280;49699;48.072;7.800;2022-08-01T04:19:19;99542.38;;;18.12;65.07
63554;BME280;49699;48.072;7.800;2022-08-01T04:21:45;99546.78;;;18.01;65.59
63554;BME280;49699;48.072;7.800;2022-08-01T04:24:14;99552.28;;;17.89;65.66
63554;BME280;49699;48.072;7.800;2022-08-01T04:26:41;99552.75;;;17.73;66.45
63554;BME280;49699;48.072;7.800;2022-08-01T04:29:09;99560.50;;;17.54;67.19
63554;BME280;49699;48.072;7.800;2022-08-01T04:31:37;99562.88;;;17.36;67.35
63554;BME280;49699;48.072;7.800;2022-08-01T04:34:05;99565.19;;;17.29;67.88
63554;BME280;49699;48.072;7.800;2022-08-01T04:36:33;99567.69;;;17.31;67.62
63554;BME280;49699;48.072;7.800;2022-08-01T04:39:00;99568.41;;;17.33;67.55
63554;BME280;49699;48.072;7.800;2022-08-01T04:41:27;99566.06;;;17.40;67.38
63554;BME280;49699;48.072;7.800;2022-08-01T04:43:57;99567.50;;;17.44;67.28
63554;BME280;49699;48.072;7.800;2022-08-01T04:46:24;99572.38;;;17.48;67.13
63554;BME280;49699;48.072;7.800;2022-08-01T04:48:50;99563.28;;;17.52;67.13
63554;BME280;49699;48.072;7.800;2022-08-01T04:51:17;99570.63;;;17.58;67.07
63554;BME280;49699;48.072;7.800;2022-08-01T04:53:44;99567.53;;;17.64;66.88
63554;BME280;49699;48.072;7.800;2022-08-01T04:56:11;99565.91;;;17.73;66.67
63554;BME280;49699;48.072;7.800;2022-08-01T04:58:41;99560.69;;;17.83;66.34
63554;BME280;49699;48.072;7.800;2022-08-01T05:01:07;99572.38;;;17.90;66.30
63554;BME280;49699;48.072;7.800;2022-08-01T05:03:33;99565.84;;;17.94;66.35
63554;BME280;49699;48.072;7.800;2022-08-01T05:05:59;99570.41;;;17.92;66.47
63554;BME280;49699;48.072;7.800;2022-08-01T05:08:24;99564.72;;;17.87;66.62
63554;BME280;49699;48.072;7.800;2022-08-01T05:10:50;99561.91;;;17.79;66.98
63554;BME280;49699;48.072;7.800;2022-08-01T05:13:15;99567.72;;;17.73;67.04
63554;BME280;49699;48.072;7.800;2022-08-01T05:15:44;99565.22;;;17.71;67.16
63554;BME280;49699;48.072;7.800;2022-08-01T05:18:09;99569.63;;;17.71;67.34
63554;BME280;49699;48.072;7.800;2022-08-01T05:20:35;99568.81;;;17.70;67.33
63554;BME280;49699;48.072;7.800;2022-08-01T05:23:00;99576.56;;;17.72;67.15
63554;BME280;49699;48.072;7.800;2022-08-01T05:25:26;99573.81;;;17.73;67.20
63554;BME280;49699;48.072;7.800;2022-08-01T05:27:51;99571.72;;;17.77;67.22
63554;BME280;49699;48.072;7.800;2022-08-01T05:30:17;99577.44;;;17.82;67.03
63554;BME280;49699;48.072;7.800;2022-08-01T05:32:42;99579.31;;;17.91;66.89
63554;BME280;49699;48.072;7.800;2022-08-01T05:35:08;99572.53;;;17.98;66.61
63554;BME280;49699;48.072;7.800;2022-08-01T05:37:34;99574.25;;;18.09;66.43
63554;BME280;49699;48.072;7.800;2022-08-01T05:40:00;99571.53;;;18.20;66.17
63554;BME280;49699;48.072;7.800;2022-08-01T05:42:25;99566.72;;;18.34;65.61
63554;BME280;49699;48.072;7.800;2022-08-01T05:44:51;99571.34;;;18.52;65.19
63554;BME280;49699;48.072;7.800;2022-08-01T05:47:17;99571.41;;;18.71;64.49
63554;BME280;49699;48.072;7.800;2022-08-01T05:49:43;99562.53;;;18.91;63.99
63554;BME280;49699;48.072;7.800;2022-08-01T05:52:09;99564.63;;;19.07;63.55
63554;BME280;49699;48.072;7.800;2022-08-01T05:54:34;99566.00;;;19.21;63.18
63554;BME280;49699;48.072;7.800;2022-08-01T05:57:00;99568.06;;;19.36;62.76
63554;BME280;49699;48.072;7.800;2022-08-01T05:59:27;99564.72;;;19.54;62.37
63554;BME280;49699;48.072;7.800;2022-08-01T06:01:53;99574.41;;;19.72;61.84
63554;BME280;49699;48.072;7.800;2022-08-01T06:04:18;99567.41;;;19.91;61.74
63554;BME280;49699;48.072;7.800;2022-08-01T06:06:44;99577.38;;;20.06;61.01
63554;BME280;49699;48.072;7.800;2022-08-01T06:09:09;99572.31;;;20.23;60.63
63554;BME280;49699;48.072;7.800;2022-08-01T06:11:34;99570.16;;;20.36;60.31
63554;BME280;49699;48.072;7.800;2022-08-01T06:14:00;99579.28;;;20.51;60.21
63554;BME280;49699;48.072;7.800;2022-08-01T06:16:25;99576.97;;;20.66;59.83
63554;BME280;49699;48.072;7.800;2022-08-01T06:18:51;99570.03;;;20.83;59.52
63554;BME280;49699;48.072;7.800;2022-08-01T06:21:17;99567.38;;;21.00;58.90
63554;BME280;49699;48.072;7.800;2022-08-01T06:23:42;99573.22;;;21.22;58.51
63554;BME280;49699;48.072;7.800;2022-08-01T06:26:08;99577.38;;;21.42;58.04
63554;BME280;49699;48.072;7.800;2022-08-01T06:28:36;99571.06;;;21.61;57.37
63554;BME280;49699;48.072;7.800;2022-08-01T06:31:02;99576.28;;;21.78;57.07
63554;BME280;49699;48.072;7.800;2022-08-01T06:33:28;99568.44;;;21.95;56.75
63554;BME280;49699;48.072;7.800;2022-08-01T06:35:54;99572.84;;;22.12;56.12
63554;BME280;49699;48.072;7.800;2022-08-01T06:38:20;99567.63;;;22.28;55.70
63554;BME280;49699;48.072;7.800;2022-08-01T06:40:45;99563.06;;;22.46;55.23
63554;BME280;49699;48.072;7.800;2022-08-01T06:43:11;99558.78;;;22.62;54.62
63554;BME280;49699;48.072;7.800;2022-08-01T06:45:37;99570.13;;;22.80;54.18
63554;BME280;49699;48.072;7.800;2022-08-01T06:48:03;99568.84;;;22.92;53.67
63554;BME280;49699;48.072;7.800;2022-08-01T06:50:29;99563.38;;;23.02;53.44
63554;BME280;49699;48.072;7.800;2022-08-01T06:52:54;99561.19;;;23.13;53.26
63554;BME280;49699;48.072;7.800;2022-08-01T06:55:20;99562.38;;;23.27;52.81
63554;BME280;49699;48.072;7.800;2022-08-01T06:57:50;99563.22;;;23.44;52.42
63554;BME280;49699;48.072;7.800;2022-08-01T07:00:17;99561.56;;;23.59;52.10
63554;BME280;49699;48.072;7.800;2022-08-01T07:02:46;99569.66;;;23.74;51.75
63554;BME280;49699;48.072;7.800;2022-08-01T07:05:12;99565.81;;;23.84;51.47
63554;BME280;49699;48.072;7.800;2022-08-01T07:07:37;99564.63;;;23.95;51.17
63554;BME280;49699;48.072;7.800;2022-08-01T07:10:03;99558.75;;;24.08;50.84
63554;BME280;49699;48.072;7.800;2022-08-01T07:12:29;99561.03;;;24.19;50.61
63554;BME280;49699;48.072;7.800;2022-08-01T07:14:55;99562.19;;;24.33;50.15
63554;BME280;49699;48.072;7.800;2022-08-01T07:17:20;99559.81;;;24.46;49.80
63554;BME280;49699;48.072;7.800;2022-08-01T07:19:46;99554.72;;;24.59;49.48
63554;BME280;49699;48.072;7.800;2022-08-01T07:22:12;99554.19;;;24.72;49.10
63554;BME280;49699;48.072;7.800;2022-08-01T07:24:39;99558.06;;;24.84;48.92
63554;BME280;49699;48.072;7.800;2022-08-01T07:27:04;99560.34;;;24.95;48.69
63554;BME280;49699;48.072;7.800;2022-08-01T07:29:30;99559.13;;;25.06;48.37
63554;BME280;49699;48.072;7.800;2022-08-01T07:31:57;99558.88;;;25.15;48.11
63554;BME280;49699;48.072;7.800;2022-08-01T07:34:24;99553.31;;;25.25;47.88
63554;BME280;49699;48.072;7.800;2022-08-01T07:36:50;99543.56;;;25.32;47.62
63554;BME280;49699;48.072;7.800;2022-08-01T07:39:16;99544.16;;;25.42;47.25
63554;BME280;49699;48.072;7.800;2022-08-01T07:41:41;99546.56;;;25.52;46.89
63554;BME280;49699;48.072;7.800;2022-08-01T07:44:43;99540.97;;;25.62;46.60
63554;BME280;49699;48.072;7.800;2022-08-01T07:47:08;99547.91;;;25.71;46.57
63554;BME280;49699;48.072;7.800;2022-08-01T07:49:34;99544.69;;;25.75;46.33
63554;BME280;49699;48.072;7.800;2022-08-01T07:52:00;99543.41;;;25.86;45.98
63554;BME280;49699;48.072;7.800;2022-08-01T07:54:25;99541.91;;;25.98;45.80
63554;BME280;49699;48.072;7.800;2022-08-01T07:56:53;99541.66;;;26.08;45.42
63554;BME280;49699;48.072;7.800;2022-08-01T07:59:19;99537.50;;;26.20;45.20
63554;BME280;49699;48.072;7.800;2022-08-01T08:01:49;99535.03;;;26.33;45.09
63554;BME280;49699;48.072;7.800;2022-08-01T08:04:15;99532.16;;;26.49;44.59
63554;BME280;49699;48.072;7.800;2022-08-01T08:06:41;99529.25;;;26.66;44.63
63554;BME280;49699;48.072;7.800;2022-08-01T08:09:06;99532.59;;;26.74;44.17
63554;BME280;49699;48.072;7.800;2022-08-01T08:11:32;99528.81;;;26.83;44.13
63554;BME280;49699;48.072;7.800;2022-08-01T08:13:57;99534.84;;;26.92;43.87
63554;BME280;49699;48.072;7.800;2022-08-01T08:16:23;99532.72;;;27.02;43.55
63554;BME280;49699;48.072;7.800;2022-08-01T08:18:48;99522.34;;;27.14;43.38
63554;BME280;49699;48.072;7.800;2022-08-01T08:21:14;99530.84;;;27.24;43.12
63554;BME280;49699;48.072;7.800;2022-08-01T08:23:39;99522.50;;;27.34;42.84
63554;BME280;49699;48.072;7.800;2022-08-01T08:26:23;99522.41;;;27.48;42.67
63554;BME280;49699;48.072;7.800;2022-08-01T08:28:51;99528.03;;;27.60;42.19
63554;BME280;49699;48.072;7.800;2022-08-01T08:31:17;99523.19;;;27.70;41.93
63554;BME280;49699;48.072;7.800;2022-08-01T08:33:42;99525.94;;;27.83;41.95
63554;BME280;49699;48.072;7.800;2022-08-01T08:36:08;99527.84;;;27.96;41.79
63554;BME280;49699;48.072;7.800;2022-08-01T08:38:33;99524.63;;;28.14;41.34
63554;BME280;49699;48.072;7.800;2022-08-01T08:40:59;99527.63;;;28.32;40.90
63554;BME280;49699;48.072;7.800;2022-08-01T08:43:25;99524.81;;;28.47;40.72
63554;BME280;49699;48.072;7.800;2022-08-01T08:45:51;99515.16;;;28.59;40.55
63554;BME280;49699;48.072;7.800;2022-08-01T08:48:17;99518.47;;;28.67;40.08
63554;BME280;49699;48.072;7.800;2022-08-01T08:50:45;99521.38;;;28.73;39.97
63554;BME280;49699;48.072;7.800;2022-08-01T08:53:12;99511.72;;;28.85;39.82
63554;BME280;49699;48.072;7.800;2022-08-01T08:55:40;99514.03;;;29.01;39.16
63554;BME280;49699;48.072;7.800;2022-08-01T08:58:11;99508.47;;;29.16;38.76
63554;BME280;49699;48.072;7.800;2022-08-01T09:00:38;99511.75;;;29.24;38.52
63554;BME280;49699;48.072;7.800;2022-08-01T09:03:04;99515.06;;;29.40;37.95
63554;BME280;49699;48.072;7.800;2022-08-01T09:05:29;99512.19;;;29.54;37.52
63554;BME280;49699;48.072;7.800;2022-08-01T09:07:55;99514.63;;;29.69;37.20
63554;BME280;49699;48.072;7.800;2022-08-01T09:10:20;99511.50;;;29.85;36.61
63554;BME280;49699;48.072;7.800;2022-08-01T09:13:09;99514.78;;;30.00;35.94
63554;BME280;49699;48.072;7.800;2022-08-01T09:15:45;99510.97;;;30.21;35.65
63554;BME280;49699;48.072;7.800;2022-08-01T09:18:35;99515.16;;;30.49;34.56
63554;BME280;49699;48.072;7.800;2022-08-01T09:21:16;99514.09;;;30.63;34.21
63554;BME280;49699;48.072;7.800;2022-08-01T09:23:51;99512.00;;;30.65;34.31
63554;BME280;49699;48.072;7.800;2022-08-01T09:26:19;99508.00;;;30.81;33.97
63554;BME280;49699;48.072;7.800;2022-08-01T09:28:46;99508.31;;;30.91;33.80
63554;BME280;49699;48.072;7.800;2022-08-01T09:31:15;99507.25;;;30.98;33.66
63554;BME280;49699;48.072;7.800;2022-08-01T09:33:51;99500.75;;;31.13;33.34
63554;BME280;49699;48.072;7.800;2022-08-01T09:36:19;99500.19;;;31.29;33.24
63554;BME280;49699;48.072;7.800;2022-08-01T09:38:44;99494.72;;;31.35;32.96
63554;BME280;49699;48.072;7.800;2022-08-01T09:41:10;99499.56;;;31.52;32.59
63554;BME280;49699;48.072;7.800;2022-08-01T09:43:36;99511.41;;;31.69;32.63
63554;BME280;49699;48.072;7.800;2022-08-01T09:46:10;99498.81;;;31.63;32.58
63554;BME280;49699;48.072;7.800;2022-08-01T09:48:37;99501.13;;;31.59;32.54
63554;BME280;49699;48.072;7.800;2022-08-01T09:51:07;99503.47;;;31.74;32.29
63554;BME280;49699;48.072;7.800;2022-08-01T09:53:44;99493.84;;;31.85;32.41
63554;BME280;49699;48.072;7.800;2022-08-01T09:56:11;99497.06;;;31.93;32.05
63554;BME280;49699;48.072;7.800;2022-08-01T09:58:58;99498.19;;;32.04;32.14
63554;BME280;49699;48.072;7.800;2022-08-01T10:01:24;99497.47;;;32.08;31.72
63554;BME280;49699;48.072;7.800;2022-08-01T10:04:17;99490.75;;;32.18;31.71
63554;BME280;49699;48.072;7.800;2022-08-01T10:06:45;99489.56;;;32.14;31.54
63554;BME280;49699;48.072;7.800;2022-08-01T10:09:13;99488.25;;;32.23;31.44
63554;BME280;49699;48.072;7.800;2022-08-01T10:11:41;99476.13;;;32.43;31.62
63554;BME280;49699;48.072;7.800;2022-08-01T10:14:07;99481.44;;;32.62;31.02
63554;BME280;49699;48.072;7.800;2022-08-01T10:16:35;99481.63;;;32.78;30.90
63554;BME280;49699;48.072;7.800;2022-08-01T10:19:03;99472.09;;;32.64;30.79
63554;BME280;49699;48.072;7.800;2022-08-01T10:21:32;99475.59;;;32.53;30.87
63554;BME280;49699;48.072;7.800;2022-08-01T10:23:58;99476.19;;;32.67;30.76
63554;BME280;49699;48.072;7.800;2022-08-01T10:26:25;99466.06;;;32.81;30.33
63554;BME280;49699;48.072;7.800;2022-08-01T10:28:52;99468.91;;;32.86;30.27
63554;BME280;49699;48.072;7.800;2022-08-01T10:31:19;99449.47;;;32.95;30.04
63554;BME280;49699;48.072;7.800;2022-08-01T10:33:44;99453.22;;;32.94;29.85
63554;BME280;49699;48.072;7.800;2022-08-01T10:36:10;99448.88;;;33.05;29.62
63554;BME280;49699;48.072;7.800;2022-08-01T10:38:36;99453.09;;;33.24;29.32
63554;BME280;49699;48.072;7.800;2022-08-01T10:41:03;99451.25;;;33.48;28.98
63554;BME280;49699;48.072;7.800;2022-08-01T10:43:29;99449.56;;;33.59;28.60
63554;BME280;49699;48.072;7.800;2022-08-01T10:45:55;99453.19;;;33.76;28.44
63554;BME280;49699;48.072;7.800;2022-08-01T10:50:53;99449.53;;;33.94;28.23
63554;BME280;49699;48.072;7.800;2022-08-01T10:53:22;99451.50;;;33.98;28.11
63554;BME280;49699;48.072;7.800;2022-08-01T10:55:59;99443.75;;;34.02;27.83
63554;BME280;49699;48.072;7.800;2022-08-01T10:58:33;99440.72;;;33.87;28.30
63554;BME280;49699;48.072;7.800;2022-08-01T11:09:05;99426.59;;;33.44;28.66
63554;BME280;49699;48.072;7.800;2022-08-01T11:12:00;99424.81;;;33.15;29.06
63554;BME280;49699;48.072;7.800;2022-08-01T11:14:27;99424.00;;;32.80;29.81
63554;BME280;49699;48.072;7.800;2022-08-01T11:16:53;99423.94;;;32.68;29.91
63554;BME280;49699;48.072;7.800;2022-08-01T11:19:18;99418.50;;;32.86;29.88
63554;BME280;49699;48.072;7.800;2022-08-01T11:24:56;99405.84;;;33.33;29.46
63554;BME280;49699;48.072;7.800;2022-08-01T11:32:46;99401.66;;;34.18;28.28
63554;BME280;49699;48.072;7.800;2022-08-01T11:35:12;99407.09;;;34.34;28.01
63554;BME280;49699;48.072;7.800;2022-08-01T11:37:38;99403.25;;;34.30;27.91
63554;BME280;49699;48.072;7.800;2022-08-01T11:40:27;99394.63;;;34.05;28.37
63554;BME280;49699;48.072;7.800;2022-08-01T11:48:23;99400.56;;;33.90;28.42
63554;BME280;49699;48.072;7.800;2022-08-01T11:50:56;99394.19;;;33.68;28.97
63554;BME280;49699;48.072;7.800;2022-08-01T11:53:22;99399.00;;;33.54;29.31
63554;BME280;49699;48.072;7.800;2022-08-01T11:55:49;99386.09;;;33.68;28.76
63554;BME280;49699;48.072;7.800;2022-08-01T11:58:20;99394.59;;;33.88;28.40
63554;BME280;49699;48.072;7.800;2022-08-01T12:00:53;99385.44;;;34.18;28.22
63554;BME280;49699;48.072;7.800;2022-08-01T12:03:26;99387.38;;;34.51;27.79
63554;BME280;49699;48.072;7.800;2022-08-01T12:05:55;99386.19;;;34.75;27.59
63554;BME280;49699;48.072;7.800;2022-08-01T12:08:25;99379.84;;;34.69;27.35
63554;BME280;49699;48.072;7.800;2022-08-01T12:10:51;99381.09;;;34.78;27.48
63554;BME280;49699;48.072;7.800;2022-08-01T12:13:16;99383.56;;;34.80;27.35
63554;BME280;49699;48.072;7.800;2022-08-01T12:15:44;99381.75;;;34.52;27.45
63554;BME280;49699;48.072;7.800;2022-08-01T12:18:10;99382.50;;;34.19;27.96
63554;BME280;49699;48.072;7.800;2022-08-01T12:20:39;99379.69;;;34.14;27.78
63554;BME280;49699;48.072;7.800;2022-08-01T12:23:07;99372.53;;;34.20;28.01
63554;BME280;49699;48.072;7.800;2022-08-01T12:25:34;99377.00;;;34.14;27.80
63554;BME280;49699;48.072;7.800;2022-08-01T12:28:04;99369.53;;;34.33;27.80
63554;BME280;49699;48.072;7.800;2022-08-01T12:30:31;99380.91;;;34.35;27.39
63554;BME280;49699;48.072;7.800;2022-08-01T12:33:01;99377.25;;;34.12;27.80
63554;BME280;49699;48.072;7.800;2022-08-01T12:35:28;99382.16;;;34.16;27.59
63554;BME280;49699;48.072;7.800;2022-08-01T12:38:02;99380.19;;;34.11;27.86
63554;BME280;49699;48.072;7.800;2022-08-01T12:40:29;99372.16;;;33.99;28.03
63554;BME280;49699;48.072;7.800;2022-08-01T12:43:04;99379.16;;;33.84;28.21
63554;BME280;49699;48.072;7.800;2022-08-01T12:45:36;99377.25;;;33.72;28.38
63554;BME280;49699;48.072;7.800;2022-08-01T12:48:07;99378.47;;;33.53;28.39
63554;BME280;49699;48.072;7.800;2022-08-01T12:50:33;99382.13;;;33.59;28.26
63554;BME280;49699;48.072;7.800;2022-08-01T12:52:59;99381.59;;;33.73;28.10
63554;BME280;49699;48.072;7.800;2022-08-01T12:55:26;99374.72;;;33.66;28.27
63554;BME280;49699;48.072;7.800;2022-08-01T12:58:09;99380.50;;;33.46;28.32
63554;BME280;49699;48.072;7.800;2022-08-01T13:00:36;99377.38;;;33.26;28.94
63554;BME280;49699;48.072;7.800;2022-08-01T13:03:04;99377.09;;;33.16;29.03
63554;BME280;49699;48.072;7.800;2022-08-01T13:05:43;99369.72;;;33.34;28.93
63554;BME280;49699;48.072;7.800;2022-08-01T13:08:11;99368.56;;;33.70;28.87
63554;BME280;49699;48.072;7.800;2022-08-01T13:10:37;99363.06;;;34.05;28.46
63554;BME280;49699;48.072;7.800;2022-08-01T13:13:03;99363.53;;;34.31;27.91
63554;BME280;49699;48.072;7.800;2022-08-01T13:15:31;99363.22;;;34.44;27.62
63554;BME280;49699;48.072;7.800;2022-08-01T13:17:58;99357.25;;;34.42;27.69
63554;BME280;49699;48.072;7.800;2022-08-01T13:20:29;99367.75;;;34.27;28.08
63554;BME280;49699;48.072;7.800;2022-08-01T13:23:09;99361.63;;;34.14;28.36
63554;BME280;49699;48.072;7.800;2022-08-01T13:25:46;99369.81;;;34.20;28.03
63554;BME280;49699;48.072;7.800;2022-08-01T13:28:22;99354.66;;;34.02;28.09
63554;BME280;49699;48.072;7.800;2022-08-01T13:31:00;99355.91;;;33.83;28.34
63554;BME280;49699;48.072;7.800;2022-08-01T13:33:40;99355.13;;;33.59;28.88
63554;BME280;49699;48.072;7.800;2022-08-01T13:36:06;99346.50;;;33.33;29.10